Terminal Aerodrome Forecast
Issued by NWS Grand Forks, ND

Home | Current Version | Previous Version | Graphics & Text | Print | Product List | Glossary On
Versions: 1 2 3 4 5 6 7 8 9 10 11 12 13 14 15 16 17 18 19 20 21 22 23 24
000
FTUS43 KFGF 240100 AAA
TAFFAR
TAF AMD
KFAR 240124Z 2401/2424 34018KT P6SM OVC009
     FM240300 34028G32KT 4SM -SN BKN015
     FM241200 34028G35KT P6SM BKN025=

USA.gov is the U.S. government's official web portal to all federal, state and local government web resources and services.